Tilden, TX

2:43 PM CDT on July 29, 2014 (GMT -0500)
Alice International (KALI) Elev 177 ft | 27.74 °N, 98.03 °W | Change Station

Current weather conditions updated 50 minutes ago

Clear
Clear
99 °F
Feels Like 100 °F
N
10
Wind Variable Wind from South
Gusts 17 mph

Today is forecast to be nearly the same temperature as yesterday.

Today
High -- | Low -- °F
--% Chance of Precip.
Yesterday
High -- | Low -- °F
Precip. -- in
6:54 AM 8:26 PM
Waxing Crescent, 7% visible
Pressure 30.02 in
Visibility 10.0 miles
Clouds Clear
Heat Index 100 °F
Dew Point 62 °F
Humidity 30%
Rainfall 0.00 in
Snow Depth Not available.
UV 12 out of 12
Pollen 5.60 out of 12
Air Quality Not available.
Flu Activity Not available.
METAR KALI 291853Z AUTO 18009G15KT 10SM CLR 37/17 A3003 RMK AO2 SLP164 T03720167

More Conditions Fewer Conditions

Pressure 30.02 in
Visibility 10.0 miles
Clouds Clear
Heat Index 100 °F
Dew Point 62 °F
Humidity 30%
Rainfall 0.00 in
Snow Depth Not available.
UV 12 out of 12
Pollen 5.60 out of 12
Air Quality Not available.
Flu Activity Not available.
METAR KALI 291853Z AUTO 18009G15KT 10SM CLR 37/17 A3003 RMK AO2 SLP164 T03720167

More Conditions Fewer Conditions

10-Day Weather Forecast

Almanac

Astronomy

Jul. 29, 2014 Rise Set
Actual Time 6:54 AM CDT 8:26 PM CDT
Civil Twilight 6:29 AM CDT 8:52 PM CDT
Nautical Twilight 5:58 AM CDT 9:23 PM CDT
Astronomical Twilight 5:26 AM CDT 9:54 PM CDT
Moon 9:15 AM CDT 9:59 PM CDT
Length of Visible Light 14h 23m
Length of Day
13h 31m
Tomorrow will be 1m 13s shorter.
Waxing Crescent, 7% of the Moon is Illuminated
Today
Waxing Crescent
Aug 3
First Quarter
Aug 10
Full
Aug 17
Last Quarter
Aug 25
New

Today's Extremes

State Highs State Lows

Community

WunderPhotos

Upload Photos

1,738,834 photos uploaded!

WunderBlogs® & News

Nearby

Snow Depth

Station Depth Elevation
No new snow has been reported.

Earthquake Activity

City Distance Mag. Time & Date
No recent earthquake activity has been reported nearby.
Minimum magnitude displayed is 2.5.

Coastal Water Temperatures

Place Temperature
No Stations Reporting

Nearby Weather Stations

Station Location Temp. Heat Index Dew Point Humidity Wind Precip. Elev Updated Type
Huajuco Road, Cotulla, TX 97.7 °F 97 °F 57 °F 26% ENE  at  2.1 mph 0.00 in / hr 394 ft 2:43 PM CDT Rapid Fire

Show More Stations Show Fewer Stations